Time;durP1;ratioP1;P1;durP2;ratioP2;P2;SDS_P1;SDS_P2;PMS_P1;PMS_P2;Temp;Humidity;BMP_temperature;BMP_pressure;BME280_temperature;BME280_humidity;BME280_pressure;Samples;Min_cycle;Max_cycle;Signal;HPM_P1;HPM_P2
2021/09/19 00:02:18;;;;;;;8.43;2.38;;;12.70;99.90;;;11.22;86.52;100441.28;4968757;28;20073;-75
2021/09/19 00:04:44;;;;;;;5.25;2.40;;;12.70;99.90;;;11.29;86.44;100447.06;4973367;28;20027;-75
2021/09/19 00:07:10;;;;;;;5.40;2.55;;;12.70;99.90;;;11.13;88.20;100444.41;4953033;28;20676;-75
2021/09/19 00:09:37;;;;;;;6.20;2.53;;;12.60;99.90;;;11.07;88.09;100442.94;4964824;28;20053;-75
2021/09/19 00:12:03;;;;;;;3.35;1.95;;;12.60;99.90;;;11.23;85.64;100431.56;4972550;28;20070;-75
2021/09/19 00:14:30;;;;;;;3.42;1.83;;;12.60;99.90;;;11.14;84.85;100417.09;4971042;28;20038;-75
2021/09/19 00:16:56;;;;;;;5.80;2.38;;;12.50;99.90;;;11.13;84.61;100428.59;4963444;28;20084;-75
2021/09/19 00:19:22;;;;;;;5.72;2.10;;;12.60;99.90;;;11.22;83.78;100428.09;4970467;28;20026;-75
2021/09/19 00:21:48;;;;;;;4.13;1.92;;;12.60;99.90;;;11.21;83.71;100431.69;4963998;28;20026;-75
2021/09/19 00:24:14;;;;;;;3.65;2.08;;;12.60;99.90;;;11.22;83.47;100427.25;4964196;28;20046;-75
2021/09/19 00:26:40;;;;;;;5.78;2.17;;;12.70;99.90;;;11.31;83.00;100431.16;4962750;28;20364;-75
2021/09/19 00:29:06;;;;;;;6.50;1.95;;;12.70;99.90;;;11.22;82.95;100433.38;4971214;28;20080;-75
2021/09/19 00:31:33;;;;;;;3.53;1.70;;;12.60;99.90;;;11.17;83.24;100435.41;4955759;28;20026;-75
2021/09/19 00:33:59;;;;;;;4.82;1.70;;;12.60;99.90;;;11.15;83.80;100428.53;4960524;28;20036;-75
2021/09/19 00:36:25;;;;;;;5.57;1.92;;;12.70;99.90;;;11.18;82.98;100425.72;4954220;28;20015;-75
2021/09/19 00:38:51;;;;;;;5.85;2.13;;;12.60;99.90;;;11.14;84.62;100430.28;4980563;28;20493;-75
2021/09/19 00:41:18;;;;;;;6.43;1.92;;;12.60;99.90;;;11.20;84.10;100429.97;4990295;28;20038;-75
2021/09/19 00:43:44;;;;;;;4.10;1.88;;;12.60;99.90;;;11.17;83.66;100427.50;4998240;28;20080;-75
2021/09/19 00:46:10;;;;;;;2.95;1.65;;;12.60;99.90;;;11.16;84.39;100425.78;4997148;28;20121;-75
2021/09/19 00:48:37;;;;;;;5.05;1.63;;;12.60;99.90;;;11.11;84.31;100425.19;4988496;28;20041;-74
2021/09/19 00:51:03;;;;;;;5.63;1.90;;;12.60;99.90;;;11.19;85.15;100424.78;4958022;28;20738;-75
2021/09/19 00:53:37;;;;;;;7.43;2.15;;;12.60;99.90;;;11.06;88.36;100430.72;4983287;28;20104;-75
2021/09/19 00:56:06;;;;;;;5.55;2.20;;;12.50;99.90;;;10.99;88.78;100431.09;4961225;28;20030;-75
2021/09/19 00:58:33;;;;;;;4.95;2.10;;;12.50;99.90;;;11.05;88.50;100425.50;4971418;28;20069;-75
2021/09/19 01:01:02;;;;;;;4.35;1.67;;;12.50;99.90;;;11.07;88.00;100418.38;4991690;28;20103;-75
2021/09/19 01:03:28;;;;;;;4.03;1.90;;;12.50;99.90;;;11.07;88.77;100415.75;4954244;28;20027;-75
2021/09/19 01:05:55;;;;;;;5.78;2.28;;;12.50;99.90;;;11.07;88.17;100403.41;4961024;28;20487;-75
2021/09/19 01:08:22;;;;;;;4.75;2.13;;;12.60;99.90;;;11.17;88.56;100408.22;4952301;28;20349;-75
2021/09/19 01:10:48;;;;;;;4.35;2.08;;;12.50;99.90;;;11.13;89.02;100407.50;4964094;28;20026;-75
2021/09/19 01:13:14;;;;;;;7.20;2.28;;;12.50;99.90;;;11.14;88.50;100403.94;4969200;28;20080;-75
2021/09/19 01:15:41;;;;;;;3.90;1.80;;;12.60;99.90;;;11.18;89.19;100410.75;4982568;28;20028;-75
2021/09/19 01:18:08;;;;;;;6.28;2.20;;;12.60;99.90;;;11.25;88.58;100408.63;4990523;28;20045;-75
2021/09/19 01:20:35;;;;;;;6.55;2.33;;;12.60;99.90;;;11.08;90.18;100409.56;4987921;28;20129;-75
2021/09/19 01:23:10;;;;;;;7.07;2.28;;;12.60;99.90;;;11.17;89.79;100418.75;4967916;28;20072;-75
2021/09/19 01:25:37;;;;;;;5.53;2.15;;;12.60;99.90;;;11.16;89.54;100412.59;4970803;28;20109;-75
2021/09/19 01:28:05;;;;;;;5.40;2.13;;;12.60;99.90;;;11.10;90.71;100407.69;4970866;28;20528;-75
2021/09/19 01:30:32;;;;;;;5.40;2.50;;;12.60;99.90;;;11.15;90.30;100417.97;4962457;28;20040;-75
2021/09/19 01:32:59;;;;;;;5.30;2.03;;;12.60;99.90;;;11.22;90.42;100409.66;4968353;28;20097;-75
2021/09/19 01:35:25;;;;;;;9.88;2.47;;;12.60;99.90;;;11.13;91.59;100412.78;4970755;28;20030;-75
2021/09/19 01:37:51;;;;;;;11.38;2.47;;;12.70;99.90;;;11.14;90.91;100401.31;4970262;28;20030;-75
2021/09/19 01:40:17;;;;;;;3.88;1.98;;;12.60;99.90;;;11.09;92.61;100433.16;4963784;28;20133;-75
2021/09/19 01:42:43;;;;;;;3.85;2.08;;;12.50;99.90;;;11.04;92.64;100522.16;4972524;28;20492;-75
2021/09/19 01:45:11;;;;;;;6.85;2.83;;;12.50;99.90;;;11.04;93.71;100500.25;4988912;28;20025;-75
2021/09/19 01:47:37;;;;;;;5.63;2.33;;;12.60;99.90;;;11.19;92.49;100451.16;4988608;28;20044;-75
2021/09/19 01:50:06;;;;;;;5.63;2.60;;;12.50;99.90;;;10.96;93.71;100449.72;4989021;28;20037;-74
2021/09/19 01:52:32;;;;;;;4.28;2.03;;;12.40;99.90;;;10.94;94.94;100435.78;4966091;28;20046;-75
2021/09/19 01:55:00;;;;;;;6.55;2.08;;;12.50;99.90;;;11.00;95.71;100451.25;4963654;28;20041;-75
2021/09/19 01:57:27;;;;;;;6.80;2.30;;;12.40;99.90;;;10.96;94.80;100442.66;4973955;28;20109;-75
2021/09/19 01:59:57;;;;;;;3.85;2.20;;;12.50;99.90;;;10.88;95.78;100440.44;4966303;28;20041;-75
2021/09/19 02:02:24;;;;;;;5.38;2.22;;;12.40;99.90;;;10.82;96.89;100455.69;4990330;28;20022;-75
2021/09/19 02:04:53;;;;;;;6.82;2.78;;;12.40;99.90;;;10.91;95.35;100481.56;4981828;28;20398;-75
2021/09/19 02:07:19;;;;;;;4.68;2.30;;;12.40;99.90;;;10.99;93.61;100444.28;4964439;28;20041;-75
2021/09/19 02:09:45;;;;;;;6.13;2.28;;;12.40;99.90;;;11.00;92.54;100430.19;4973724;28;20022;-75
2021/09/19 02:12:14;;;;;;;8.10;2.53;;;12.50;99.90;;;11.09;93.33;100438.44;4987827;28;20041;-75
2021/09/19 02:14:43;;;;;;;4.88;1.98;;;12.60;99.90;;;11.13;92.28;100418.06;4972910;28;20022;-75
2021/09/19 02:17:13;;;;;;;5.93;2.50;;;12.60;99.90;;;11.04;93.01;100413.28;4971540;28;20114;-75
2021/09/19 02:19:41;;;;;;;3.67;1.95;;;12.50;99.90;;;10.99;92.83;100423.19;4956211;28;20520;-75
2021/09/19 02:22:12;;;;;;;5.72;2.47;;;12.40;99.90;;;11.08;93.69;100415.69;4998964;28;20038;-75
2021/09/19 02:24:39;;;;;;;5.60;2.30;;;12.50;99.90;;;11.08;93.02;100414.84;4978120;28;20519;-75
2021/09/19 02:27:07;;;;;;;5.00;2.00;;;12.60;99.90;;;11.15;93.20;100415.34;4990393;28;20065;-75
2021/09/19 02:29:33;;;;;;;5.57;2.15;;;12.60;99.90;;;11.01;94.64;100427.44;4989395;28;20602;-75
2021/09/19 02:31:59;;;;;;;7.07;2.15;;;12.50;99.90;;;11.09;95.38;100437.59;4989141;28;20465;-75
2021/09/19 02:34:26;;;;;;;4.20;2.30;;;12.50;99.90;;;10.96;97.23;100458.47;4948966;28;20031;-75
2021/09/19 02:36:53;;;;;;;6.72;2.40;;;12.40;99.90;;;10.86;98.17;100447.56;4970352;28;20034;-75
2021/09/19 02:39:19;;;;;;;4.70;2.17;;;12.40;99.90;;;10.83;98.62;100483.75;4965946;28;20479;-75
2021/09/19 02:41:46;;;;;;;11.70;2.30;;;12.30;99.90;;;10.76;98.98;100522.72;4972995;28;20066;-75
2021/09/19 02:44:12;;;;;;;6.50;1.95;;;12.30;99.90;;;10.79;99.21;100493.59;4974988;28;20064;-75
2021/09/19 02:46:38;;;;;;;4.75;2.13;;;12.30;99.90;;;10.85;98.62;100489.78;4958128;28;20042;-75
2021/09/19 02:49:04;;;;;;;5.10;1.77;;;12.30;99.90;;;10.86;98.85;100488.84;4973218;28;20117;-75
2021/09/19 02:51:30;;;;;;;5.68;2.13;;;12.30;99.90;;;10.87;99.23;100491.41;4975148;28;20022;-75
2021/09/19 02:53:56;;;;;;;6.00;2.30;;;12.30;99.90;;;10.81;99.62;100502.25;4971890;28;20386;-75
2021/09/19 02:56:22;;;;;;;6.18;2.10;;;12.40;99.90;;;10.90;98.46;100490.41;4957623;28;20038;-75
2021/09/19 02:58:48;;;;;;;6.50;1.92;;;12.40;99.90;;;10.88;98.20;100498.41;4973450;28;20038;-75
2021/09/19 03:01:14;;;;;;;4.03;2.10;;;12.40;99.90;;;11.02;96.36;100475.75;4972449;28;20054;-75
2021/09/19 03:03:40;;;;;;;4.57;1.90;;;12.50;99.90;;;11.12;93.86;100455.88;4965040;28;20122;-75
2021/09/19 03:06:06;;;;;;;3.72;1.55;;;12.60;99.90;;;11.15;92.59;100442.53;4956379;28;20026;-75
2021/09/19 03:08:32;;;;;;;5.30;2.20;;;12.60;99.90;;;11.18;92.30;100444.16;4964399;28;20081;-75
2021/09/19 03:10:59;;;;;;;5.35;1.73;;;13.10;99.90;;;11.21;91.44;100425.53;4957522;28;20030;-75
2021/09/19 03:13:25;;;;;;;5.20;1.52;;;12.70;99.90;;;11.32;90.27;100438.13;4970471;28;20462;-75
2021/09/19 03:15:51;;;;;;;5.03;2.08;;;12.70;99.90;;;11.28;90.88;100438.31;4954813;28;20204;-75
2021/09/19 03:18:17;;;;;;;8.30;1.50;;;12.70;99.90;;;11.28;91.10;100440.09;4972005;28;20054;-75
2021/09/19 03:20:43;;;;;;;3.45;1.67;;;12.70;99.90;;;11.24;91.72;100438.56;4965474;28;20095;-75
2021/09/19 03:23:09;;;;;;;6.45;1.75;;;12.70;99.90;;;11.23;91.81;100442.13;4965036;28;20503;-75
2021/09/19 03:25:35;;;;;;;4.32;1.75;;;12.70;99.90;;;11.27;90.95;100436.63;4970453;28;20102;-75
2021/09/19 03:28:02;;;;;;;5.15;1.70;;;12.70;99.90;;;11.19;92.01;100424.78;4965133;28;20435;-75
2021/09/19 03:30:28;;;;;;;3.63;1.45;;;12.60;99.90;;;11.19;91.95;100423.00;4971790;28;20034;-75
2021/09/19 03:32:54;;;;;;;7.07;1.70;;;12.70;99.90;;;11.25;91.06;100416.53;4984999;28;20041;-75
2021/09/19 03:35:20;;;;;;;3.30;1.60;;;12.70;99.90;;;11.29;91.50;100423.34;4980164;28;20038;-75
2021/09/19 03:37:46;;;;;;;5.55;1.40;;;12.70;99.90;;;11.19;91.54;100412.47;4964864;28;20072;-75
2021/09/19 03:40:13;;;;;;;4.85;1.85;;;12.70;99.90;;;11.32;90.67;100409.13;4970669;28;20078;-75
2021/09/19 03:42:39;;;;;;;2.97;1.50;;;12.70;99.90;;;11.25;90.98;100409.50;4963907;28;20026;-75
2021/09/19 03:45:06;;;;;;;4.78;2.03;;;12.70;99.90;;;11.36;89.94;100410.66;4964550;28;20118;-75
2021/09/19 03:47:33;;;;;;;4.90;1.40;;;12.70;99.90;;;11.31;90.50;100405.66;4962605;28;20486;-75
2021/09/19 03:50:00;;;;;;;6.18;1.48;;;12.70;99.90;;;11.28;90.60;100406.69;4973222;28;20080;-75
2021/09/19 03:52:26;;;;;;;4.35;1.42;;;12.70;99.90;;;11.32;91.29;100407.38;4991240;28;20489;-75
2021/09/19 03:54:52;;;;;;;7.70;2.00;;;12.70;99.90;;;11.26;91.62;100413.81;4990072;28;20022;-75
2021/09/19 03:57:18;;;;;;;9.25;2.10;;;12.70;99.90;;;11.37;91.74;100412.38;4990221;28;20030;-75
2021/09/19 03:59:43;;;;;;;5.68;1.38;;;12.80;99.90;;;11.43;91.38;100414.69;4991679;28;20052;-75
2021/09/19 04:02:09;;;;;;;3.45;1.65;;;12.80;99.90;;;11.39;92.18;100416.63;4991259;28;20023;-75
2021/09/19 04:04:35;;;;;;;4.95;2.17;;;12.80;99.90;;;11.31;92.78;100400.38;4992867;28;20510;-75
2021/09/19 04:07:02;;;;;;;2.58;1.50;;;12.80;99.90;;;11.39;92.54;100410.53;4968036;28;20018;-75
2021/09/19 04:09:28;;;;;;;3.80;1.60;;;12.80;99.90;;;11.36;93.46;100419.47;4947352;28;20080;-74
2021/09/19 04:11:55;;;;;;;3.58;1.63;;;12.70;99.90;;;11.20;94.61;100419.41;4964549;28;20022;-75
2021/09/19 04:14:22;;;;;;;6.53;1.77;;;12.70;99.90;;;11.18;96.64;100420.44;4970419;28;20081;-75
2021/09/19 04:16:48;;;;;;;7.60;2.63;;;12.70;99.90;;;11.12;95.90;100441.84;4947160;28;20026;-76
2021/09/19 04:19:14;;;;;;;5.63;2.00;;;12.60;99.90;;;11.10;95.63;100436.69;4962818;28;20072;-75
2021/09/19 04:21:40;;;;;;;7.30;1.90;;;12.60;99.90;;;11.04;96.56;100432.56;4955167;28;20076;-75
2021/09/19 04:24:06;;;;;;;6.10;1.80;;;12.50;99.90;;;11.09;95.79;100427.91;4956134;28;20042;-75
2021/09/19 04:26:32;;;;;;;2.95;1.50;;;12.50;99.90;;;11.06;96.53;100429.88;4969732;28;20064;-74
2021/09/19 04:28:58;;;;;;;3.90;1.73;;;12.60;99.90;;;11.05;96.05;100428.16;4973062;28;20049;-75
2021/09/19 04:31:24;;;;;;;7.63;1.70;;;12.50;99.90;;;11.03;96.17;100440.56;4962233;28;20052;-76
2021/09/19 04:33:50;;;;;;;2.92;1.50;;;12.50;99.90;;;11.01;96.23;100429.25;4956361;28;20065;-74
2021/09/19 04:36:16;;;;;;;4.97;1.52;;;12.60;99.90;;;11.17;94.53;100421.38;4979680;28;20037;-75
2021/09/19 04:38:42;;;;;;;2.17;1.50;;;12.60;99.90;;;11.19;93.71;100409.81;4989912;28;20028;-75
2021/09/19 04:41:08;;;;;;;10.65;1.70;;;12.70;99.90;;;11.26;92.93;100410.34;4988227;28;20391;-75
2021/09/19 04:43:34;;;;;;;9.25;1.70;;;12.60;99.90;;;11.19;92.37;100403.72;4991868;28;20056;-75
2021/09/19 04:46:00;;;;;;;3.88;1.60;;;12.60;99.90;;;11.14;91.51;100398.66;4965704;28;20146;-75
2021/09/19 04:48:26;;;;;;;3.78;1.60;;;12.60;99.90;;;11.06;91.58;100395.63;4970150;28;20077;-75
2021/09/19 04:50:53;;;;;;;3.08;1.30;;;12.50;99.90;;;10.99;92.08;100394.22;4962179;28;20536;-75
2021/09/19 04:53:18;;;;;;;2.55;1.88;;;12.40;99.90;;;10.88;92.39;100398.31;4961243;28;20038;-76
2021/09/19 04:55:44;;;;;;;3.90;1.58;;;12.30;99.90;;;10.83;92.89;100397.69;4972285;28;20146;-76
2021/09/19 04:58:10;;;;;;;8.95;1.48;;;12.30;99.90;;;10.77;92.38;100398.00;4969583;28;20607;-75
2021/09/19 05:00:36;;;;;;;3.25;1.60;;;12.20;99.90;;;10.78;91.93;100399.72;4952879;28;20022;-75
2021/09/19 05:03:03;;;;;;;2.28;1.55;;;12.30;99.90;;;10.83;91.26;100391.56;4963894;28;20405;-75
2021/09/19 05:05:29;;;;;;;4.63;1.58;;;12.30;99.90;;;10.79;90.95;100401.41;4970486;28;20030;-75
2021/09/19 05:07:55;;;;;;;5.97;2.22;;;12.30;99.90;;;10.76;90.62;100395.47;4960941;28;20035;-75
2021/09/19 05:10:21;;;;;;;2.20;1.13;;;12.20;99.90;;;10.74;89.58;100392.91;4954764;28;20151;-75
2021/09/19 05:12:47;;;;;;;4.70;1.15;;;12.20;99.90;;;10.72;89.72;100386.88;4953554;28;20486;-75
2021/09/19 05:15:13;;;;;;;6.25;1.30;;;12.20;99.90;;;10.83;87.53;100389.78;4972364;28;20470;-75
2021/09/19 05:17:39;;;;;;;4.85;1.55;;;12.30;99.90;;;10.94;85.62;100391.84;4961572;28;20031;-75
2021/09/19 05:20:06;;;;;;;2.25;1.58;;;12.40;99.90;;;11.02;86.05;100394.06;4969467;28;20786;-75
2021/09/19 05:22:32;;;;;;;3.03;1.45;;;12.50;99.90;;;11.14;84.05;100390.75;4954576;28;20027;-75
2021/09/19 05:24:58;;;;;;;2.50;1.23;;;12.60;99.90;;;11.14;84.87;100400.47;4970144;28;20071;-75
2021/09/19 05:27:24;;;;;;;5.63;1.45;;;12.60;99.90;;;11.14;84.84;100414.47;4959731;28;20482;-75
2021/09/19 05:29:50;;;;;;;3.42;1.73;;;12.50;99.90;;;10.96;87.30;100399.66;4987812;28;20022;-75
2021/09/19 05:32:16;;;;;;;5.68;1.70;;;12.40;99.90;;;10.91;87.83;100404.31;4971307;28;20070;-75
2021/09/19 05:34:42;;;;;;;3.55;1.83;;;12.40;99.90;;;10.87;87.64;100404.50;4960954;28;20385;-75
2021/09/19 05:37:08;;;;;;;1.52;1.10;;;12.30;99.90;;;10.83;89.27;100426.66;4963242;28;20069;-75
2021/09/19 05:39:34;;;;;;;3.85;1.42;;;12.30;99.90;;;10.83;88.77;100410.84;4987772;28;20842;-74
2021/09/19 05:42:00;;;;;;;4.55;1.60;;;12.30;99.90;;;10.94;88.02;100407.66;4971998;28;20540;-75
2021/09/19 05:44:27;;;;;;;3.03;1.60;;;12.40;99.90;;;11.12;84.23;100400.53;4988648;28;20125;-74
2021/09/19 05:46:52;;;;;;;4.65;1.60;;;12.50;99.90;;;11.10;85.22;100399.78;4990174;28;20038;-75
2021/09/19 05:49:18;;;;;;;3.13;1.42;;;12.60;99.90;;;11.19;83.57;100391.38;4970352;28;20054;-75
2021/09/19 05:51:45;;;;;;;2.22;1.20;;;12.60;99.90;;;11.17;84.49;100408.22;4988099;28;20023;-75
2021/09/19 05:54:11;;;;;;;2.40;1.48;;;12.70;99.90;;;11.26;82.13;100400.63;4964727;28;20026;-74
2021/09/19 05:56:37;;;;;;;2.60;1.17;;;12.70;99.90;;;11.23;81.84;100394.69;4971210;28;20671;-76
2021/09/19 05:59:03;;;;;;;3.00;1.17;;;12.70;99.90;;;11.22;80.54;100404.38;4946471;28;20035;-75
2021/09/19 06:01:29;;;;;;;5.47;1.48;;;12.70;99.90;;;11.20;81.39;100410.66;4959204;28;20046;-75
2021/09/19 06:03:55;;;;;;;8.27;1.50;;;12.60;99.90;;;11.14;81.54;100413.63;4968634;28;20395;-75
2021/09/19 06:06:21;;;;;;;2.78;1.42;;;12.60;99.90;;;11.12;85.52;100433.94;4970757;28;20061;-75
2021/09/19 06:08:47;;;;;;;2.45;1.30;;;12.60;99.90;;;11.08;85.37;100431.47;4950041;28;20069;-75
2021/09/19 06:11:13;;;;;;;2.30;1.45;;;12.60;99.90;;;11.09;88.31;100435.81;4975022;28;20031;-75
2021/09/19 06:13:39;;;;;;;4.57;1.73;;;12.50;99.90;;;11.04;89.53;100442.28;4966287;28;20038;-75
2021/09/19 06:16:05;;;;;;;6.53;1.80;;;12.50;99.90;;;11.03;89.22;100438.75;4964540;28;20031;-75
2021/09/19 06:18:33;;;;;;;2.63;1.48;;;12.50;99.90;;;11.04;89.56;100440.47;4963818;28;20030;-75
2021/09/19 06:20:59;;;;;;;4.60;1.30;;;12.50;99.90;;;11.09;88.67;100440.22;4972794;28;20041;-75
2021/09/19 06:23:25;;;;;;;3.45;1.77;;;12.60;99.90;;;11.13;89.39;100433.03;4949923;28;20085;-76
2021/09/19 06:25:52;;;;;;;3.38;1.50;;;12.60;99.90;;;11.18;90.85;100441.53;4970608;28;23691;-75
2021/09/19 06:28:19;;;;;;;5.25;1.70;;;12.60;99.90;;;11.19;89.70;100428.28;4970364;28;20119;-75
2021/09/19 06:30:45;;;;;;;5.05;1.88;;;12.60;99.90;;;11.20;88.83;100423.84;4966877;28;20023;-75
2021/09/19 06:33:11;;;;;;;2.58;1.50;;;12.60;99.90;;;11.22;87.64;100416.72;4976335;28;20018;-76
2021/09/19 06:35:37;;;;;;;2.58;1.45;;;12.60;99.90;;;11.24;88.78;100420.97;4974148;28;20076;-75
2021/09/19 06:38:04;;;;;;;4.75;1.70;;;12.60;99.90;;;11.26;87.99;100420.88;4964798;28;20034;-76
2021/09/19 06:40:30;;;;;;;2.67;1.10;;;12.70;99.90;;;11.35;84.13;100416.91;4966416;28;20053;-75
2021/09/19 06:42:56;;;;;;;4.88;1.55;;;12.80;99.90;;;11.38;85.22;100416.72;4969496;28;20097;-76
2021/09/19 06:45:22;;;;;;;14.85;1.55;;;12.90;99.90;;;11.51;85.36;100420.38;4950113;28;20026;-75
2021/09/19 06:47:48;;;;;;;2.90;1.30;;;12.90;99.90;;;11.57;86.68;100433.22;4972193;28;20402;-75
2021/09/19 06:50:14;;;;;;;3.22;1.30;;;13.10;99.90;;;11.71;85.37;100421.91;4973031;28;20034;-75
2021/09/19 06:52:41;;;;;;;3.20;1.27;;;13.20;99.90;;;11.78;85.54;100441.72;4963776;28;20021;-75
2021/09/19 06:55:08;;;;;;;4.10;1.60;;;13.20;99.90;;;11.83;84.79;100439.66;4972777;28;20029;-75
2021/09/19 06:57:34;;;;;;;2.97;1.48;;;13.20;99.90;;;11.76;85.93;100426.94;4963659;28;20084;-75
2021/09/19 07:00:02;;;;;;;2.60;1.27;;;13.30;99.90;;;11.86;85.72;100428.13;4974472;28;20792;-75
2021/09/19 07:02:28;;;;;;;5.97;1.50;;;13.30;99.90;;;11.82;85.24;100438.00;4967155;28;20037;-75
2021/09/19 07:04:54;;;;;;;1.63;1.00;;;13.20;99.90;;;11.87;84.52;100433.28;4962963;28;20386;-75
2021/09/19 07:07:20;;;;;;;4.82;0.98;;;13.20;99.90;;;11.83;84.27;100423.84;4951145;28;20018;-75
2021/09/19 07:09:46;;;;;;;4.85;1.17;;;13.30;99.90;;;11.84;85.00;100430.00;5000120;28;20835;-75
2021/09/19 07:12:12;;;;;;;2.70;1.38;;;13.30;99.90;;;11.96;83.93;100418.75;4999863;28;20049;-75
2021/09/19 07:14:38;;;;;;;3.72;1.48;;;13.40;99.90;;;11.96;83.46;100405.56;4973352;28;20038;-75
2021/09/19 07:17:05;;;;;;;2.10;1.25;;;13.40;99.90;;;12.04;82.75;100413.06;4999586;28;20026;-75
2021/09/19 07:19:31;;;;;;;4.35;1.30;;;13.40;99.90;;;12.08;84.19;100422.50;4989280;28;20028;-75
2021/09/19 07:21:57;;;;;;;4.93;1.38;;;13.50;99.90;;;12.15;83.64;100421.19;4989648;28;20064;-75
2021/09/19 07:24:23;;;;;;;2.15;1.20;;;13.50;99.90;;;12.13;84.58;100424.88;4982841;28;20034;-76
2021/09/19 07:26:49;;;;;;;5.82;1.50;;;13.50;99.90;;;12.16;83.65;100425.53;4992065;28;20022;-75
2021/09/19 07:29:15;;;;;;;3.20;1.27;;;13.60;99.90;;;12.24;83.35;100425.94;4964572;28;20047;-75
2021/09/19 07:31:42;;;;;;;4.68;1.20;;;13.60;99.90;;;12.35;82.47;100430.56;4975736;28;20030;-75
2021/09/19 07:34:08;;;;;;;4.68;1.30;;;13.70;99.90;;;12.33;82.45;100429.81;4989903;28;20546;-75
2021/09/19 07:36:36;;;;;;;4.95;1.17;;;13.70;99.90;;;12.37;83.04;100430.50;4992200;28;20068;-76
2021/09/19 07:39:07;;;;;;;2.63;1.10;;;13.80;99.90;;;12.49;81.07;100427.97;4991523;28;20064;-75
2021/09/19 07:41:34;;;;;;;3.55;1.10;;;13.80;99.90;;;12.46;81.09;100428.19;4973294;28;20611;-75
2021/09/19 07:44:00;;;;;;;2.45;1.42;;;13.90;99.90;;;12.50;81.25;100429.69;4965231;28;20037;-75
2021/09/19 07:46:27;;;;;;;4.30;1.27;;;13.90;99.90;;;12.62;80.03;100416.69;4986251;28;20464;-75
2021/09/19 07:48:54;;;;;;;2.08;1.45;;;14.00;99.90;;;12.60;80.69;100430.00;4975513;28;20045;-75
2021/09/19 07:51:20;;;;;;;2.05;1.10;;;14.00;99.90;;;12.64;80.26;100428.03;4991052;28;20052;-76
2021/09/19 07:53:47;;;;;;;5.88;1.30;;;14.00;99.90;;;12.61;78.85;100421.13;4974832;28;20042;-75
2021/09/19 07:56:13;;;;;;;3.45;1.13;;;14.00;99.90;;;12.72;78.16;100431.91;4983115;28;20037;-75
2021/09/19 07:58:39;;;;;;;4.75;1.02;;;14.00;99.90;;;12.64;80.01;100430.66;4982822;28;20465;-75
2021/09/19 08:01:05;;;;;;;4.28;1.08;;;14.10;99.90;;;12.55;80.70;100416.22;4965817;28;20048;-75
2021/09/19 08:03:31;;;;;;;2.58;0.90;;;14.00;99.90;;;12.57;80.68;100429.31;4965414;28;20506;-75
2021/09/19 08:06:07;;;;;;;2.22;1.05;;;14.00;99.90;;;12.61;80.34;100430.84;4944221;28;20047;-75
2021/09/19 08:08:33;;;;;;;2.85;0.85;;;14.00;99.90;;;12.58;78.54;100417.81;4937637;28;21718;-75
2021/09/19 08:11:03;;;;;;;2.33;1.10;;;14.10;99.90;;;12.68;77.35;100400.47;4954340;28;20037;-75
2021/09/19 08:13:29;;;;;;;2.35;0.90;;;14.00;99.90;;;12.61;79.02;100510.94;4952167;28;20078;-75
2021/09/19 08:16:17;;;;;;;7.38;1.20;;;14.00;99.90;;;12.74;77.32;100521.63;4925643;28;20046;-75
2021/09/19 08:18:59;;;;;;;2.55;1.20;;;14.00;99.90;;;12.64;77.08;100526.59;4943850;28;20105;-75
2021/09/19 08:21:51;;;;;;;3.00;1.08;;;14.00;99.90;;;12.56;78.08;100512.13;4929446;28;20035;-76
2021/09/19 08:24:50;;;;;;;3.10;1.05;;;13.90;99.90;;;12.55;78.03;100521.00;4928835;28;20053;-75
2021/09/19 08:27:45;;;;;;;3.25;1.23;;;13.90;99.90;;;12.57;78.55;100514.69;4941930;28;20124;-75
2021/09/19 08:30:23;;;;;;;1.80;0.90;;;13.90;99.90;;;12.51;78.30;100515.06;4948430;28;20386;-76
2021/09/19 08:33:35;;;;;;;2.85;1.10;;;13.80;99.90;;;12.44;79.84;100534.81;4943855;28;20068;-75
2021/09/19 08:36:44;;;;;;;2.78;0.90;;;13.80;99.90;;;12.43;79.73;100531.31;4934193;28;20031;-76
2021/09/19 08:39:27;;;;;;;4.88;1.27;;;13.80;99.90;;;12.49;80.28;100528.34;4943810;28;20072;-75
2021/09/19 08:42:29;;;;;;;5.25;0.93;;;13.80;99.90;;;12.46;80.86;100539.09;4925417;28;20045;-75
2021/09/19 08:45:00;;;;;;;3.33;1.20;;;13.90;99.90;;;12.49;80.99;100535.41;4949240;28;20045;-76
2021/09/19 08:47:35;;;;;;;3.92;1.10;;;13.90;99.90;;;12.46;81.81;100544.38;4933939;28;20460;-75
2021/09/19 08:50:48;;;;;;;2.67;1.15;;;13.90;99.90;;;12.57;81.26;100534.97;4947030;28;20185;-75
2021/09/19 08:53:25;;;;;;;7.38;1.13;;;14.00;99.90;;;12.68;79.60;100532.56;4936385;28;20062;-75
2021/09/19 08:56:05;;;;;;;1.50;0.90;;;14.10;99.90;;;12.60;81.58;100545.38;4947980;28;20021;-75
2021/09/19 08:58:37;;;;;;;2.13;0.88;;;14.10;99.90;;;12.68;80.33;100527.28;4924033;28;20022;-75
2021/09/19 09:01:38;;;;;;;1.20;0.80;;;14.20;99.90;;;12.77;80.63;100528.53;4940140;28;21047;-75
2021/09/19 09:04:53;;;;;;;1.65;0.93;;;14.20;99.90;;;12.90;79.60;100532.16;4928090;28;20048;-75
2021/09/19 09:07:30;;;;;;;1.95;0.98;;;14.40;99.90;;;13.01;79.91;100534.16;4946637;28;20299;-76
2021/09/19 09:10:44;;;;;;;4.57;0.93;;;14.40;99.90;;;12.97;78.99;100528.19;4956803;28;20051;-76
2021/09/19 09:13:44;;;;;;;4.38;0.75;;;14.40;99.90;;;12.92;77.73;100507.31;4958571;28;20420;-76
2021/09/19 09:16:58;;;;;;;1.63;0.85;;;14.40;99.90;;;13.05;75.96;100517.16;4934661;28;20097;-75
2021/09/19 09:20:25;;;;;;;0.85;0.73;;;14.40;99.90;;;13.04;76.58;100528.66;4922691;28;20066;-76
2021/09/19 09:23:45;;;;;;;7.13;0.80;;;14.50;99.90;;;13.08;76.92;100520.47;4934375;28;20046;-76
2021/09/19 09:27:12;;;;;;;5.75;0.80;;;14.60;99.90;;;13.39;75.54;100531.88;4926705;28;20507;-76
2021/09/19 09:30:33;;;;;;;0.93;0.65;;;14.70;99.90;;;13.55;75.46;100531.75;4936415;28;20042;-75
2021/09/19 09:33:32;;;;;;;;;;;14.80;99.90;;;13.42;72.50;100517.59;4948600;28;20451;-75
2021/09/19 09:36:43;;;;;;;2.42;0.70;;;14.70;99.90;;;13.33;72.49;100519.00;4950002;28;19979;-76
2021/09/19 09:40:21;;;;;;;4.53;0.57;;;14.80;99.90;;;13.71;70.32;100531.63;4949235;28;20601;-76
2021/09/19 09:43:21;;;;;;;0.82;0.63;;;15.10;99.90;;;14.01;68.40;100552.66;4930668;28;20042;-75
2021/09/19 09:46:13;;;;;;;4.60;0.93;;;15.30;99.90;;;14.23;67.56;100546.84;4927357;28;20073;-76
2021/09/19 09:49:56;;;;;;;1.17;0.50;;;15.50;99.90;;;14.30;65.61;100556.09;4943132;28;20522;-76
2021/09/19 09:52:37;;;;;;;1.77;0.80;;;15.70;99.90;;;14.37;65.13;100559.19;4938311;28;20422;-76
2021/09/19 09:56:07;;;;;;;1.83;0.90;;;15.60;99.90;;;14.37;67.30;100561.84;4916457;28;20034;-76
2021/09/19 09:59:36;;;;;;;2.33;0.90;;;15.70;99.90;;;14.43;64.48;100564.09;4937067;28;20663;-75
2021/09/19 10:02:58;;;;;;;5.65;0.80;;;15.70;99.90;;;14.64;62.61;100574.25;4944703;28;20083;-75
2021/09/19 10:05:32;;;;;;;2.45;0.85;;;15.90;99.90;;;14.73;64.13;100571.03;4929764;28;20043;-75
2021/09/19 10:08:55;;;;;;;2.50;0.90;;;15.90;99.90;;;14.71;62.15;100554.38;4925612;28;20042;-76
2021/09/19 10:11:35;;;;;;;2.60;0.70;;;15.90;99.90;;;14.52;64.81;100552.91;4925560;28;20093;-76
2021/09/19 10:15:02;;;;;;;4.20;1.08;;;16.00;99.90;;;14.74;65.37;100556.81;4926678;28;20113;-75
2021/09/19 10:18:33;;;;;;;4.80;0.75;;;15.90;99.90;;;14.62;65.70;100550.53;4928699;28;20043;-76
2021/09/19 10:22:03;;;;;;;3.20;0.75;;;15.90;99.90;;;14.49;63.93;100545.16;4947090;28;20037;-75
2021/09/19 10:25:52;;;;;;;1.17;0.70;;;16.00;99.90;;;14.63;64.38;100548.72;4958704;28;20056;-75
2021/09/19 10:29:13;;;;;;;2.00;0.60;;;15.80;99.90;;;14.46;65.19;100544.50;4939507;28;20567;-75
2021/09/19 10:31:47;;;;;;;3.53;0.88;;;15.80;99.90;;;14.39;63.95;100532.63;4943591;28;20125;-76
2021/09/19 10:34:37;;;;;;;3.65;0.85;;;15.80;99.90;;;14.34;65.41;100539.06;4924354;28;20046;-75
2021/09/19 10:38:00;;;;;;;4.18;0.80;;;15.70;99.90;;;14.35;65.78;100546.06;4914609;28;20061;-75
2021/09/19 10:40:44;;;;;;;3.22;0.73;;;15.50;99.90;;;14.10;64.51;100536.22;4940355;28;20046;-75